createdAt,value
2022-12-14T00:00:58.165Z,7.68
2022-12-14T00:04:01.101Z,7.32
2022-12-14T00:07:02.964Z,7.10
2022-12-14T00:10:05.254Z,7.20
2022-12-14T00:13:08.619Z,7.47
2022-12-14T00:16:14.067Z,7.22
2022-12-14T00:19:16.220Z,7.07
2022-12-14T00:22:18.178Z,8.30
2022-12-14T00:25:20.171Z,8.25
2022-12-14T00:28:22.055Z,8.02
2022-12-14T00:31:25.268Z,7.65
2022-12-14T00:34:27.266Z,8.18
2022-12-14T00:37:29.180Z,7.82
2022-12-14T00:40:31.033Z,8.27
2022-12-14T00:43:33.053Z,8.73
2022-12-14T00:46:35.010Z,8.32
2022-12-14T00:49:36.987Z,7.85
2022-12-14T00:52:38.885Z,7.75
2022-12-14T00:55:42.558Z,7.47
2022-12-14T00:58:49.725Z,6.95
2022-12-14T01:01:51.799Z,7.57
2022-12-14T01:04:53.812Z,7.53
2022-12-14T01:07:56.319Z,7.50
2022-12-14T01:10:58.302Z,8.07
2022-12-14T01:14:00.251Z,6.75
2022-12-14T01:17:02.268Z,7.25
2022-12-14T01:20:04.664Z,7.53
2022-12-14T01:23:06.604Z,7.72
2022-12-14T01:26:08.716Z,7.13
2022-12-14T01:29:11.484Z,7.50
2022-12-14T01:32:13.486Z,8.02
2022-12-14T01:35:15.555Z,7.50
2022-12-14T01:38:17.417Z,7.72
2022-12-14T01:41:31.086Z,8.13
2022-12-14T01:44:32.931Z,7.72
2022-12-14T01:47:42.857Z,8.23
2022-12-14T01:50:46.666Z,7.78
2022-12-14T01:53:48.832Z,7.60
2022-12-14T01:56:50.963Z,8.25
2022-12-14T01:59:54.562Z,7.97
2022-12-14T02:03:01.320Z,7.95
2022-12-14T02:06:09.019Z,7.93
2022-12-14T02:09:18.852Z,8.88
2022-12-14T02:12:32.425Z,8.27
2022-12-14T02:15:34.719Z,7.90
2022-12-14T02:18:36.640Z,8.32
2022-12-14T02:22:06.637Z,8.45
2022-12-14T02:25:16.678Z,8.75
2022-12-14T02:29:04.816Z,9.02
2022-12-14T02:32:35.344Z,7.65
2022-12-14T02:35:46.839Z,9.02
2022-12-14T02:39:34.577Z,8.52
2022-12-14T02:43:00.549Z,8.63
2022-12-14T02:46:29.189Z,8.02
2022-12-14T02:49:49.341Z,9.00
2022-12-14T02:53:21.959Z,8.32
2022-12-14T02:56:29.576Z,8.85
2022-12-14T02:59:33.777Z,8.18
2022-12-14T03:02:38.883Z,8.65
2022-12-14T03:05:54.589Z,7.72
2022-12-14T03:09:04.114Z,9.07
2022-12-14T03:12:12.074Z,9.55
2022-12-14T03:15:18.387Z,8.82
2022-12-14T03:18:21.697Z,10.27
2022-12-14T03:24:43.481Z,8.95
2022-12-14T03:27:50.981Z,9.00
2022-12-14T03:31:05.641Z,8.98
2022-12-14T03:34:13.602Z,9.30
2022-12-14T03:37:17.863Z,8.65
2022-12-14T03:40:24.595Z,8.95
2022-12-14T03:43:49.747Z,8.32
2022-12-14T03:47:04.103Z,8.45
2022-12-14T03:50:17.927Z,7.32
2022-12-14T03:53:41.246Z,8.30
2022-12-14T03:57:14.965Z,8.25
2022-12-14T04:00:22.800Z,8.55
2022-12-14T04:03:33.194Z,8.50
2022-12-14T04:07:19.955Z,8.00
2022-12-14T04:10:30.042Z,8.93
2022-12-14T04:13:38.559Z,7.82
2022-12-14T04:16:43.678Z,7.97
2022-12-14T04:20:01.014Z,8.63
2022-12-14T04:23:11.413Z,8.48
2022-12-14T04:26:17.880Z,7.72
2022-12-14T04:29:24.688Z,8.00
2022-12-14T04:32:34.569Z,8.23
2022-12-14T04:35:41.794Z,8.32
2022-12-14T04:38:46.814Z,8.70
2022-12-14T04:41:56.512Z,7.95
2022-12-14T04:45:08.295Z,8.27
2022-12-14T04:48:34.028Z,7.68
2022-12-14T04:51:46.766Z,7.25
2022-12-14T04:55:03.667Z,8.30
2022-12-14T04:58:19.721Z,7.82
2022-12-14T05:01:51.983Z,7.70
2022-12-14T05:05:17.172Z,7.13
2022-12-14T05:08:46.856Z,7.75
2022-12-14T05:12:11.754Z,7.93
2022-12-14T05:15:18.770Z,6.85
2022-12-14T05:18:21.288Z,8.00
2022-12-14T05:21:23.494Z,7.75
2022-12-14T05:24:25.685Z,7.18
2022-12-14T05:27:30.120Z,7.68
2022-12-14T05:30:32.405Z,7.78
2022-12-14T05:33:34.472Z,7.63
2022-12-14T05:36:37.938Z,8.07
2022-12-14T05:39:40.413Z,7.43
2022-12-14T05:42:45.385Z,8.65
2022-12-14T05:45:49.738Z,9.45
2022-12-14T05:48:51.770Z,8.18
2022-12-14T05:51:53.938Z,8.73
2022-12-14T05:55:00.855Z,9.38
2022-12-14T05:58:06.010Z,9.13
2022-12-14T06:01:14.110Z,9.65
2022-12-14T06:04:21.423Z,11.65
2022-12-14T06:07:27.691Z,10.70
2022-12-14T06:10:30.800Z,10.00
2022-12-14T06:13:32.836Z,11.05
2022-12-14T06:16:35.834Z,10.68
2022-12-14T06:19:37.917Z,12.88
2022-12-14T06:22:45.841Z,15.27
2022-12-14T06:25:56.827Z,14.63
2022-12-14T06:32:01.717Z,12.30
2022-12-14T06:35:04.144Z,12.32
2022-12-14T06:38:06.279Z,14.02
2022-12-14T06:41:09.312Z,12.30
2022-12-14T06:47:15.209Z,11.35
2022-12-14T06:50:17.260Z,11.75
2022-12-14T06:53:19.377Z,11.45
2022-12-14T06:56:22.591Z,13.43
2022-12-14T06:59:24.676Z,11.38
2022-12-14T07:02:26.899Z,11.63
2022-12-14T07:05:29.777Z,11.65
2022-12-14T07:08:33.218Z,13.30
2022-12-14T07:11:35.354Z,13.15
2022-12-14T07:14:37.576Z,12.30
2022-12-14T07:17:39.618Z,12.82
2022-12-14T07:20:41.675Z,12.75
2022-12-14T07:23:45.643Z,12.02
2022-12-14T07:26:47.680Z,13.00
2022-12-14T07:29:50.681Z,12.32
2022-12-14T07:32:52.741Z,13.48
2022-12-14T07:36:07.355Z,13.07
2022-12-14T07:39:12.365Z,12.18
2022-12-14T07:42:14.459Z,12.85
2022-12-14T07:45:22.117Z,13.23
2022-12-14T07:48:24.277Z,12.90
2022-12-14T07:51:30.580Z,13.25
2022-12-14T07:54:32.814Z,12.65
2022-12-14T07:57:34.935Z,12.95
2022-12-14T08:00:36.961Z,12.88
2022-12-14T08:03:46.519Z,13.18
2022-12-14T08:06:49.603Z,12.65
2022-12-14T08:09:52.633Z,13.90
2022-12-14T08:12:54.763Z,13.38
2022-12-14T08:15:57.077Z,13.90
2022-12-14T08:19:00.318Z,14.50
2022-12-14T08:22:02.429Z,14.80
2022-12-14T08:25:04.944Z,13.82
2022-12-14T08:28:06.858Z,14.32
2022-12-14T08:31:12.740Z,14.55
2022-12-14T08:34:14.941Z,14.38
2022-12-14T08:37:17.059Z,14.98
2022-12-14T08:40:19.117Z,15.18
2022-12-14T08:43:24.939Z,15.73
2022-12-14T08:46:29.352Z,14.43
2022-12-14T08:49:32.585Z,14.65
2022-12-14T08:52:34.940Z,15.18
2022-12-14T08:55:38.583Z,13.55
2022-12-14T08:58:42.174Z,14.85
2022-12-14T09:01:44.428Z,15.07
2022-12-14T09:04:46.662Z,14.32
2022-12-14T09:07:48.824Z,15.00
2022-12-14T09:10:53.379Z,14.88
2022-12-14T09:13:56.312Z,14.52
2022-12-14T09:16:58.810Z,15.18
2022-12-14T09:20:03.207Z,14.18
2022-12-14T09:23:05.219Z,15.27
2022-12-14T09:26:17.472Z,14.52
2022-12-14T09:29:21.074Z,15.90
2022-12-14T09:32:23.924Z,14.77
2022-12-14T09:35:26.261Z,15.60
2022-12-14T09:38:31.020Z,16.38
2022-12-14T09:41:36.126Z,16.15
2022-12-14T09:44:52.762Z,16.95
2022-12-14T09:47:58.726Z,16.40
2022-12-14T09:51:00.777Z,18.30
2022-12-14T09:54:12.590Z,17.15
2022-12-14T09:57:25.286Z,18.35
2022-12-14T10:00:34.301Z,16.58
2022-12-14T10:04:13.132Z,15.50
2022-12-14T10:07:34.312Z,17.23
2022-12-14T10:11:18.195Z,17.08
2022-12-14T10:14:58.442Z,16.42
2022-12-14T10:18:57.768Z,16.13
2022-12-14T10:21:57.346Z,15.90
2022-12-14T10:25:07.020Z,15.93
2022-12-14T10:28:20.348Z,17.05
2022-12-14T10:31:48.127Z,15.70
2022-12-14T10:34:51.443Z,17.77
2022-12-14T10:38:05.476Z,16.23
2022-12-14T10:41:25.614Z,17.33
2022-12-14T10:45:09.651Z,17.52
2022-12-14T10:48:42.314Z,17.90
2022-12-14T10:51:56.887Z,17.42
2022-12-14T10:55:14.716Z,18.35
2022-12-14T10:58:17.024Z,17.75
2022-12-14T11:01:19.355Z,16.33
2022-12-14T11:04:44.189Z,18.67
2022-12-14T11:07:46.550Z,17.63
2022-12-14T11:10:50.564Z,16.75
2022-12-14T11:14:08.493Z,17.25
2022-12-14T11:17:41.658Z,16.83
2022-12-14T11:20:49.894Z,16.88
2022-12-14T11:23:57.401Z,16.70
2022-12-14T11:27:02.703Z,16.05
2022-12-14T11:30:05.710Z,16.73
2022-12-14T11:33:17.134Z,15.90
2022-12-14T11:36:24.992Z,15.57
2022-12-14T11:39:28.874Z,15.73
2022-12-14T11:42:31.320Z,16.73
2022-12-14T11:45:34.433Z,16.13
2022-12-14T11:48:37.545Z,16.88
2022-12-14T12:03:36.154Z,15.55
2022-12-14T12:06:38.341Z,17.13
2022-12-14T12:09:41.746Z,18.33
2022-12-14T12:12:59.580Z,18.33
2022-12-14T12:16:19.387Z,18.35
2022-12-14T12:19:29.520Z,17.70
2022-12-14T12:22:32.073Z,17.90
2022-12-14T12:25:37.595Z,16.25
2022-12-14T12:28:43.724Z,17.15
2022-12-14T12:31:57.458Z,17.40
2022-12-14T12:35:23.171Z,16.45
2022-12-14T12:38:50.417Z,15.90
2022-12-14T12:42:06.245Z,17.52
2022-12-14T12:45:31.969Z,17.17
2022-12-14T12:48:40.189Z,17.98
2022-12-14T12:51:53.309Z,17.92
2022-12-14T12:55:02.185Z,17.73
2022-12-14T12:58:05.409Z,18.30
2022-12-14T13:01:38.959Z,17.00
2022-12-14T13:07:59.023Z,17.55
2022-12-14T13:11:25.746Z,16.50
2022-12-14T13:14:56.193Z,15.95
2022-12-14T13:18:49.248Z,15.98
2022-12-14T13:21:50.308Z,17.17
2022-12-14T13:24:58.851Z,18.52
2022-12-14T13:28:25.985Z,18.77
2022-12-14T13:31:58.581Z,18.05
2022-12-14T13:35:18.981Z,16.55
2022-12-14T13:38:34.215Z,17.15
2022-12-14T13:45:01.090Z,17.50
2022-12-14T13:48:08.604Z,17.00
2022-12-14T13:51:40.260Z,17.00
2022-12-14T13:54:47.191Z,16.58
2022-12-14T13:57:49.535Z,17.02
2022-12-14T14:00:57.934Z,16.70
2022-12-14T14:04:12.051Z,16.25
2022-12-14T14:07:23.155Z,17.10
2022-12-14T14:10:32.189Z,17.35
2022-12-14T14:13:34.232Z,15.82
2022-12-14T14:16:42.952Z,17.45
2022-12-14T14:19:49.705Z,15.82
2022-12-14T14:23:14.005Z,16.55
2022-12-14T14:26:33.377Z,17.63
2022-12-14T14:29:36.837Z,17.80
2022-12-14T14:32:41.083Z,17.40
2022-12-14T14:35:44.013Z,17.13
2022-12-14T14:38:54.322Z,16.85
2022-12-14T14:41:56.978Z,17.27
2022-12-14T14:45:04.482Z,17.90
2022-12-14T14:48:18.516Z,16.35
2022-12-14T14:51:35.610Z,17.50
2022-12-14T14:55:11.055Z,17.27
2022-12-14T14:58:04.014Z,16.95
2022-12-14T15:01:06.708Z,15.48
2022-12-14T15:04:36.232Z,15.88
2022-12-14T15:07:38.409Z,16.02
2022-12-14T15:10:44.293Z,16.08
2022-12-14T15:13:57.640Z,16.27
2022-12-14T15:17:12.666Z,15.10
2022-12-14T15:20:21.636Z,16.17
2022-12-14T15:23:24.863Z,16.13
2022-12-14T15:26:32.076Z,16.13
2022-12-14T15:29:34.243Z,15.70
2022-12-14T15:32:38.979Z,15.05
2022-12-14T15:35:42.815Z,15.25
2022-12-14T15:38:57.045Z,16.90
2022-12-14T15:42:11.237Z,14.98
2022-12-14T15:45:16.432Z,15.52
2022-12-14T15:48:26.163Z,16.48
2022-12-14T15:51:36.416Z,14.70
2022-12-14T15:54:38.442Z,15.50
2022-12-14T15:57:40.729Z,15.38
2022-12-14T16:00:48.333Z,17.08
2022-12-14T16:03:55.323Z,15.00
2022-12-14T16:07:08.504Z,16.08
2022-12-14T16:10:22.838Z,17.38
2022-12-14T16:13:38.083Z,15.70
2022-12-14T16:16:40.531Z,16.65
2022-12-14T16:20:00.178Z,15.95
2022-12-14T16:23:05.495Z,16.55
2022-12-14T16:26:13.630Z,16.35
2022-12-14T16:29:25.214Z,18.40
2022-12-14T16:32:27.893Z,16.00
2022-12-14T16:35:33.989Z,19.77
2022-12-14T16:38:42.653Z,17.48
2022-12-14T16:42:01.154Z,16.90
2022-12-14T16:45:03.657Z,17.25
2022-12-14T16:48:15.516Z,18.73
2022-12-14T16:51:44.919Z,18.70
2022-12-14T16:55:09.165Z,16.70
2022-12-14T16:58:17.945Z,16.20
2022-12-14T17:01:20.588Z,15.15
2022-12-14T17:04:23.556Z,15.75
2022-12-14T17:07:28.648Z,15.30
2022-12-14T17:10:30.642Z,15.57
2022-12-14T17:13:33.218Z,15.48
2022-12-14T17:16:35.965Z,13.65
2022-12-14T17:19:39.949Z,14.02
2022-12-14T17:22:42.513Z,14.50
2022-12-14T17:25:47.911Z,15.38
2022-12-14T17:28:50.388Z,15.02
2022-12-14T17:31:54.390Z,14.98
2022-12-14T17:34:56.546Z,15.00
2022-12-14T17:37:59.231Z,14.57
2022-12-14T17:41:01.422Z,15.52
2022-12-14T17:44:04.000Z,14.63
2022-12-14T17:47:06.093Z,15.68
2022-12-14T17:50:09.655Z,16.00
2022-12-14T17:53:16.942Z,14.57
2022-12-14T17:56:19.477Z,14.32
2022-12-14T17:59:21.571Z,14.65
2022-12-14T18:02:31.156Z,15.60
2022-12-14T18:05:33.759Z,14.93
2022-12-14T18:08:35.876Z,14.75
2022-12-14T18:11:54.238Z,15.43
2022-12-14T18:15:00.021Z,16.02
2022-12-14T18:18:02.207Z,15.35
2022-12-14T18:21:16.239Z,18.83
2022-12-14T18:24:24.172Z,19.45
2022-12-14T18:27:31.952Z,14.70
2022-12-14T18:30:41.762Z,18.33
2022-12-14T18:33:48.580Z,15.43
2022-12-14T18:36:51.070Z,16.35
2022-12-14T18:43:01.378Z,16.70
2022-12-14T18:46:03.700Z,15.95
2022-12-14T18:49:06.775Z,15.50
2022-12-14T18:52:13.108Z,13.27
2022-12-14T18:55:21.270Z,14.82
2022-12-14T19:01:33.559Z,15.32
2022-12-14T19:04:38.961Z,13.40
2022-12-14T19:07:51.638Z,13.95
2022-12-14T19:10:56.272Z,12.98
2022-12-14T19:13:58.534Z,14.35
2022-12-14T19:17:00.909Z,14.93
2022-12-14T19:20:03.792Z,13.82
2022-12-14T19:23:06.347Z,14.43
2022-12-14T19:26:08.616Z,14.65
2022-12-14T19:29:10.923Z,15.38
2022-12-14T19:32:13.374Z,14.40
2022-12-14T19:35:23.152Z,14.40
2022-12-14T19:38:33.187Z,14.95
2022-12-14T19:41:43.286Z,14.68
2022-12-14T19:44:52.096Z,14.52
2022-12-14T19:47:55.978Z,14.75
2022-12-14T19:50:58.251Z,16.30
2022-12-14T19:54:00.410Z,14.27
2022-12-14T20:00:17.757Z,13.15
2022-12-14T20:03:20.452Z,14.60
2022-12-14T20:06:27.349Z,14.45
2022-12-14T20:09:29.936Z,14.82
2022-12-14T20:12:34.027Z,14.25
2022-12-14T20:15:40.542Z,15.43
2022-12-14T20:18:44.558Z,13.52
2022-12-14T20:21:47.195Z,13.98
2022-12-14T20:24:49.372Z,13.52
2022-12-14T20:27:52.688Z,14.35
2022-12-14T20:30:54.931Z,14.52
2022-12-14T20:34:00.044Z,14.13
2022-12-14T20:37:02.259Z,13.98
2022-12-14T20:40:04.946Z,14.18
2022-12-14T20:43:08.440Z,13.82
2022-12-14T20:46:34.008Z,13.30
2022-12-14T20:49:37.753Z,13.05
2022-12-14T20:52:39.992Z,12.90
2022-12-14T20:55:42.239Z,13.32
2022-12-14T20:58:48.322Z,15.02
2022-12-14T21:01:55.875Z,13.60
2022-12-14T21:04:58.765Z,14.07
2022-12-14T21:08:00.912Z,14.68
2022-12-14T21:11:03.725Z,12.80
2022-12-14T21:14:07.844Z,14.15
2022-12-14T21:17:10.238Z,13.57
2022-12-14T21:20:12.677Z,13.82
2022-12-14T21:23:14.976Z,14.38
2022-12-14T21:26:17.135Z,14.20
2022-12-14T21:29:19.304Z,15.52
2022-12-14T21:32:22.714Z,12.77
2022-12-14T21:38:28.228Z,14.48
2022-12-14T21:41:30.442Z,12.98
2022-12-14T21:44:33.618Z,13.90
2022-12-14T21:47:35.716Z,14.05
2022-12-14T21:50:37.868Z,12.50
2022-12-14T21:53:40.349Z,12.52
2022-12-14T21:56:43.289Z,12.35
2022-12-14T21:59:45.697Z,12.18
2022-12-14T22:02:48.029Z,13.00
2022-12-14T22:05:50.361Z,12.82
2022-12-14T22:08:52.522Z,14.50
2022-12-14T22:11:54.737Z,12.85
2022-12-14T22:14:56.833Z,13.38
2022-12-14T22:17:58.929Z,12.75
2022-12-14T22:21:05.152Z,13.10
2022-12-14T22:24:08.100Z,14.15
2022-12-14T22:27:11.885Z,12.77
2022-12-14T22:30:14.807Z,13.45
2022-12-14T22:33:17.054Z,12.68
2022-12-14T22:36:19.041Z,11.85
2022-12-14T22:39:21.167Z,13.07
2022-12-14T22:42:23.327Z,12.88
2022-12-14T22:45:26.188Z,12.27
2022-12-14T22:48:28.370Z,12.68
2022-12-14T22:51:30.731Z,11.00
2022-12-14T22:54:33.136Z,12.30
2022-12-14T22:57:39.043Z,13.40
2022-12-14T23:00:41.138Z,11.93
2022-12-14T23:03:43.347Z,12.57
2022-12-14T23:06:45.834Z,12.27
2022-12-14T23:09:48.141Z,13.00
2022-12-14T23:12:50.166Z,13.05
2022-12-14T23:15:52.177Z,12.52
2022-12-14T23:18:54.274Z,11.55
2022-12-14T23:21:56.335Z,11.88
2022-12-14T23:24:58.530Z,11.93
2022-12-14T23:28:01.082Z,12.32
2022-12-14T23:31:03.584Z,12.60
2022-12-14T23:34:05.976Z,13.10
2022-12-14T23:37:13.699Z,12.60
2022-12-14T23:40:18.824Z,12.68
2022-12-14T23:43:21.146Z,13.52
2022-12-14T23:46:23.274Z,12.55
2022-12-14T23:49:25.431Z,12.40
2022-12-14T23:52:27.447Z,12.73
2022-12-14T23:55:29.682Z,12.57
2022-12-14T23:58:32.075Z,13.07
